Hampstead, North Carolina
Current Conditions -  °F | °C
As of 2:53 PM on Sunday 25 Jan 2015 (Local Time) from KILM Reporting Station
Clear Clear  
Wind Chill: 53°   Ceiling: Unl
Heat Index: 53°   Visibility: 10mi
Dew Point: 35°   Wind: 9mph
Humidity: 50%   Direction: 150°SSE
Pressure: 29.9"   Gusts: NA
Location:  34.37°N, 77.71°W
Report Text: KILM 251953Z AUTO 15008KT 110V180 10SM CLR 12/02 A2990 RMK AO2 SLP125 T01170017
Loading
Personal Weather Stations






























Interactive Weather Map New forecast layout! Learn more

10-Day Weather Forecast

Advertisements
Track Severe Weather on mobile